Dr Bravo — 3ECC6 — position and weather

sailwx.info

Track history (hours):
 
Tides and Currents Weather Stations Pressure Air Temp Water Temp Dewpoint Dewpoint Depression Visibility Wind Speed Wind Dir Waves Ship Positions

Dr Bravo

Last reported at 2017-Oct-20 17:49 UTC. Time now 2017-Nov-21 17:40 UTC.
Position N 30°59' E 122°33'.
Warning: this ship's position is 31 days out of date.

Length 225 m; draft 7.3 m.

Type: Cargo ship. MMSI: 371314000.

Date/timePositionNaut miles runAvg speedWind from/ knotsBaromVisibWave heightAir tempDewpointWater temp
2017-Oct-20 17:49N 30°59' E 122°33'613.5
2017-Oct-20 17:21N 31°00' E 122°26'513.4
2017-Oct-20 17:00N 31°01' E 122°21'612.6
2017-Oct-20 16:30N 31°03' E 122°14'5 9.4
2017-Oct-20 16:00N 31°03' E 122°08'510.6
2017-Oct-20 15:31N 31°05' E 122°02'5 9.4
2017-Oct-20 15:00N 31°06' E 121°57'10 9.6
2017-Oct-20 14:00N 31°13' E 121°49'611.2
2017-Oct-20 13:30N 31°17' E 121°45'510.2
2017-Oct-20 13:01N 31°20' E 121°40'611.8
2017-Oct-20 12:31N 31°23' E 121°34'510.7
2017-Oct-20 12:00N 31°26' E 121°29'4 7.8
2017-Oct-20 11:30N 31°29' E 121°26'5 9.3
2017-Oct-20 11:00N 31°32' E 121°21'510.2
2017-Oct-20 10:30N 31°36' E 121°17'612.6
2017-Oct-20 10:00N 31°40' E 121°12'3 2.5
2017-Oct-20 08:37N 31°42' E 121°09'0 0.0
2017-Oct-20 08:25N 31°42' E 121°09'0 0.0
2017-Oct-20 07:55N 31°42' E 121°09'0 0.0
2017-Oct-20 07:19N 31°42' E 121°09'0 0.0
2017-Oct-20 06:55N 31°42' E 121°09'0 0.0
2017-Oct-20 06:25N 31°42' E 121°09'0 0.0
2017-Oct-20 05:55N 31°42' E 121°09'0 0.0
2017-Oct-20 05:28N 31°42' E 121°09'0 0.0
2017-Oct-20 04:55N 31°42' E 121°09'0 0.0
2017-Oct-20 04:28N 31°42' E 121°09'0 0.0
2017-Oct-20 03:55N 31°42' E 121°09'0 0.0
2017-Oct-20 03:16N 31°42' E 121°09'0 0.0
2017-Oct-20 02:49N 31°42' E 121°09'0 0.0
2017-Oct-20 02:25N 31°42' E 121°09'0 0.0
2017-Oct-20 01:43N 31°42' E 121°09'0 0.0
2017-Oct-20 01:25N 31°42' E 121°09'0 0.0
2017-Oct-20 00:43N 31°42' E 121°09'0 0.0
2017-Oct-20 00:16N 31°42' E 121°09'0 0.0
2017-Oct-19 23:49N 31°42' E 121°09'0 0.0
2017-Oct-19 22:37N 31°42' E 121°09'0 0.0
2017-Oct-19 22:28N 31°42' E 121°09'0 0.0
2017-Oct-19 21:43N 31°42' E 121°09'0 0.0
2017-Oct-19 21:25N 31°42' E 121°09'0 0.0
2017-Oct-19 20:49N 31°42' E 121°09'0 0.0
2017-Oct-19 20:25N 31°42' E 121°09'0 0.0
2017-Oct-19 19:43N 31°42' E 121°09'0 0.0
2017-Oct-19 19:28N 31°42' E 121°09'0 0.0
2017-Oct-19 16:55N 31°42' E 121°09'0 0.0
2017-Oct-19 16:25N 31°42' E 121°09'0 0.0
2017-Oct-19 14:55N 31°42' E 121°09'0 0.0
2017-Oct-19 14:19N 31°42' E 121°09'0 0.0
2017-Oct-19 13:58N 31°42' E 121°09'0 0.0
2017-Oct-19 12:07N 31°42' E 121°09'0 0.0
2017-Oct-19 10:13N 31°42' E 121°09'0 0.0
2017-Oct-19 08:13N 31°42' E 121°09'0 0.0
2017-Oct-19 07:55N 31°42' E 121°09'0 0.0
2017-Oct-19 07:25N 31°42' E 121°09'0 0.0
2017-Oct-19 06:55N 31°42' E 121°09'0 0.0
2017-Oct-19 06:13N 31°42' E 121°09'0 0.0
2017-Oct-19 05:55N 31°42' E 121°09'0 0.0
2017-Oct-19 05:25N 31°42' E 121°09'0 0.0
2017-Oct-19 03:11N 31°42' E 121°09'0 0.0
2017-Oct-19 03:00N 31°42' E 121°09'0 0.0
2017-Oct-19 01:48N 31°42' E 121°09'0 0.5
2017-Oct-19 01:28N 31°42' E 121°09'3 6.0
2017-Oct-19 00:59N 31°40' E 121°12'3 6.6
2017-Oct-19 00:30N 31°38' E 121°15'3 6.0
2017-Oct-19 00:00N 31°36' E 121°17'1 1.8
2017-Oct-18 23:29N 31°36' E 121°18'0 0.0
2017-Oct-18 22:59N 31°36' E 121°18'0 0.0
2017-Oct-18 22:29N 31°36' E 121°18'0 0.0
2017-Oct-18 21:59N 31°36' E 121°18'0 0.1
2017-Oct-18 21:29N 31°36' E 121°18'0 0.1
2017-Oct-18 20:59N 31°36' E 121°18'0 0.1
2017-Oct-18 20:29N 31°36' E 121°18'0 0.1
2017-Oct-18 19:59N 31°36' E 121°18'0 0.1
2017-Oct-18 19:29N 31°36' E 121°18'0 0.1
2017-Oct-18 18:59N 31°36' E 121°18'0 0.1
2017-Oct-18 18:29N 31°36' E 121°18'0 0.2
2017-Oct-18 18:00N 31°36' E 121°18'1 1.9
2017-Oct-18 17:30N 31°35' E 121°18'3 6.9
2017-Oct-18 17:00N 31°32' E 121°21'611.4
2017-Oct-18 16:30N 31°29' E 121°26'4 8.4
2017-Oct-18 16:00N 31°26' E 121°30'4 7.9
2017-Oct-18 15:30N 31°24' E 121°34'5 9.7
2017-Oct-18 15:00N 31°22' E 121°39'1111.4
2017-Oct-18 14:00N 31°17' E 121°51'510.8
2017-Oct-18 13:30N 31°15' E 121°57'5 9.2
2017-Oct-18 13:00N 31°14' E 122°02'711.8
2017-Oct-18 12:25N 31°12' E 122°09'3 7.6
2017-Oct-18 12:00N 31°10' E 122°12'4 7.4
2017-Oct-18 11:30N 31°08' E 122°16'3 5.7
2017-Oct-18 11:00N 31°06' E 122°19'3 5.8
2017-Oct-18 10:30N 31°06' E 122°22'2 4.8
2017-Oct-18 10:00N 31°07' E 122°25'4 7.0
2017-Oct-18 09:30N 31°07' E 122°29'  
Track history (hours):
 
Tides and Currents Weather Stations Pressure Air Temp Water Temp Dewpoint Dewpoint Depression Visibility Wind Speed Wind Dir Waves Ship Positions

Dr Bravo

Last reported at 2017-Oct-20 17:49 UTC. Time now 2017-Nov-21 17:40 UTC.
Position N 30°59' E 122°33'.
Warning: this ship's position is 31 days out of date.

Length 225 m; draft 7.3 m.

Type: Cargo ship. MMSI: 371314000.

Date/timePositionNaut miles runAvg speedWind from/ knotsBaromVisibWave heightAir tempDewpointWater temp
2017-Oct-20 17:49N 30°59' E 122°33'613.5
2017-Oct-20 17:21N 31°00' E 122°26'513.4
2017-Oct-20 17:00N 31°01' E 122°21'612.6
2017-Oct-20 16:30N 31°03' E 122°14'5 9.4
2017-Oct-20 16:00N 31°03' E 122°08'510.6
2017-Oct-20 15:31N 31°05' E 122°02'5 9.4
2017-Oct-20 15:00N 31°06' E 121°57'10 9.6
2017-Oct-20 14:00N 31°13' E 121°49'611.2
2017-Oct-20 13:30N 31°17' E 121°45'510.2
2017-Oct-20 13:01N 31°20' E 121°40'611.8
2017-Oct-20 12:31N 31°23' E 121°34'510.7
2017-Oct-20 12:00N 31°26' E 121°29'4 7.8
2017-Oct-20 11:30N 31°29' E 121°26'5 9.3
2017-Oct-20 11:00N 31°32' E 121°21'510.2
2017-Oct-20 10:30N 31°36' E 121°17'612.6
2017-Oct-20 10:00N 31°40' E 121°12'3 2.5
2017-Oct-20 08:37N 31°42' E 121°09'0 0.0
2017-Oct-20 08:25N 31°42' E 121°09'0 0.0
2017-Oct-20 07:55N 31°42' E 121°09'0 0.0
2017-Oct-20 07:19N 31°42' E 121°09'0 0.0
2017-Oct-20 06:55N 31°42' E 121°09'0 0.0
2017-Oct-20 06:25N 31°42' E 121°09'0 0.0
2017-Oct-20 05:55N 31°42' E 121°09'0 0.0
2017-Oct-20 05:28N 31°42' E 121°09'0 0.0
2017-Oct-20 04:55N 31°42' E 121°09'0 0.0
2017-Oct-20 04:28N 31°42' E 121°09'0 0.0
2017-Oct-20 03:55N 31°42' E 121°09'0 0.0
2017-Oct-20 03:16N 31°42' E 121°09'0 0.0
2017-Oct-20 02:49N 31°42' E 121°09'0 0.0
2017-Oct-20 02:25N 31°42' E 121°09'0 0.0
2017-Oct-20 01:43N 31°42' E 121°09'0 0.0
2017-Oct-20 01:25N 31°42' E 121°09'0 0.0
2017-Oct-20 00:43N 31°42' E 121°09'0 0.0
2017-Oct-20 00:16N 31°42' E 121°09'0 0.0
2017-Oct-19 23:49N 31°42' E 121°09'0 0.0
2017-Oct-19 22:37N 31°42' E 121°09'0 0.0
2017-Oct-19 22:28N 31°42' E 121°09'0 0.0
2017-Oct-19 21:43N 31°42' E 121°09'0 0.0
2017-Oct-19 21:25N 31°42' E 121°09'0 0.0
2017-Oct-19 20:49N 31°42' E 121°09'0 0.0
2017-Oct-19 20:25N 31°42' E 121°09'0 0.0
2017-Oct-19 19:43N 31°42' E 121°09'0 0.0
2017-Oct-19 19:28N 31°42' E 121°09'0 0.0
2017-Oct-19 16:55N 31°42' E 121°09'0 0.0
2017-Oct-19 16:25N 31°42' E 121°09'0 0.0
2017-Oct-19 14:55N 31°42' E 121°09'0 0.0
2017-Oct-19 14:19N 31°42' E 121°09'0 0.0
2017-Oct-19 13:58N 31°42' E 121°09'0 0.0
2017-Oct-19 12:07N 31°42' E 121°09'0 0.0
2017-Oct-19 10:13N 31°42' E 121°09'0 0.0
2017-Oct-19 08:13N 31°42' E 121°09'0 0.0
2017-Oct-19 07:55N 31°42' E 121°09'0 0.0
2017-Oct-19 07:25N 31°42' E 121°09'0 0.0
2017-Oct-19 06:55N 31°42' E 121°09'0 0.0
2017-Oct-19 06:13N 31°42' E 121°09'0 0.0
2017-Oct-19 05:55N 31°42' E 121°09'0 0.0
2017-Oct-19 05:25N 31°42' E 121°09'0 0.0
2017-Oct-19 03:11N 31°42' E 121°09'0 0.0
2017-Oct-19 03:00N 31°42' E 121°09'0 0.0
2017-Oct-19 01:48N 31°42' E 121°09'0 0.5
2017-Oct-19 01:28N 31°42' E 121°09'3 6.0
2017-Oct-19 00:59N 31°40' E 121°12'3 6.6
2017-Oct-19 00:30N 31°38' E 121°15'3 6.0
2017-Oct-19 00:00N 31°36' E 121°17'1 1.8
2017-Oct-18 23:29N 31°36' E 121°18'0 0.0
2017-Oct-18 22:59N 31°36' E 121°18'0 0.0
2017-Oct-18 22:29N 31°36' E 121°18'0 0.0
2017-Oct-18 21:59N 31°36' E 121°18'0 0.1
2017-Oct-18 21:29N 31°36' E 121°18'0 0.1
2017-Oct-18 20:59N 31°36' E 121°18'0 0.1
2017-Oct-18 20:29N 31°36' E 121°18'0 0.1
2017-Oct-18 19:59N 31°36' E 121°18'0 0.1
2017-Oct-18 19:29N 31°36' E 121°18'0 0.1
2017-Oct-18 18:59N 31°36' E 121°18'0 0.1
2017-Oct-18 18:29N 31°36' E 121°18'0 0.2
2017-Oct-18 18:00N 31°36' E 121°18'1 1.9
2017-Oct-18 17:30N 31°35' E 121°18'3 6.9
2017-Oct-18 17:00N 31°32' E 121°21'611.4
2017-Oct-18 16:30N 31°29' E 121°26'4 8.4
2017-Oct-18 16:00N 31°26' E 121°30'4 7.9
2017-Oct-18 15:30N 31°24' E 121°34'5 9.7
2017-Oct-18 15:00N 31°22' E 121°39'1111.4
2017-Oct-18 14:00N 31°17' E 121°51'510.8
2017-Oct-18 13:30N 31°15' E 121°57'5 9.2
2017-Oct-18 13:00N 31°14' E 122°02'711.8
2017-Oct-18 12:25N 31°12' E 122°09'3 7.6
2017-Oct-18 12:00N 31°10' E 122°12'4 7.4
2017-Oct-18 11:30N 31°08' E 122°16'3 5.7
2017-Oct-18 11:00N 31°06' E 122°19'3 5.8
2017-Oct-18 10:30N 31°06' E 122°22'2 4.8
2017-Oct-18 10:00N 31°07' E 122°25'4 7.0
2017-Oct-18 09:30N 31°07' E 122°29'  

Dump ship's entire track history